Time;durP1;ratioP1;P1;durP2;ratioP2;P2;SDS_P1;SDS_P2;PMS_P1;PMS_P2;Temp;Humidity;BMP_temperature;BMP_pressure;BME280_temperature;BME280_humidity;BME280_pressure;Samples;Min_cycle;Max_cycle;Signal;HPM_P1;HPM_P2
2023/07/21 00:02:24;;;;;;;123.40;11.63;;;;;;;;;;4998113;28;20037;-57
2023/07/21 00:04:49;;;;;;;188.88;86.05;;;;;;;;;;4999700;28;20021;-54
2023/07/21 00:07:14;;;;;;;173.02;27.92;;;;;;;;;;4998884;28;20041;-56
2023/07/21 00:09:39;;;;;;;117.57;8.10;;;;;;;;;;4998863;28;20025;-53
2023/07/21 00:12:05;;;;;;;182.90;74.17;;;;;;;;;;4997029;28;20436;-56
2023/07/21 00:14:30;;;;;;;126.63;12.02;;;;;;;;;;4999695;28;20319;-55
2023/07/21 00:16:55;;;;;;;181.88;60.90;;;;;;;;;;4997599;28;20437;-55
2023/07/21 00:19:21;;;;;;;177.27;15.20;;;;;;;;;;5000740;28;20018;-55
2023/07/21 00:21:46;;;;;;;84.63;7.18;;;;;;;;;;5002783;28;20303;-54
2023/07/21 00:24:13;;;;;;;150.63;10.93;;;;;;;;;;5001118;28;20606;-55
2023/07/21 00:26:38;;;;;;;85.43;7.13;;;;;;;;;;5003215;28;20261;-55
2023/07/21 00:29:03;;;;;;;89.07;7.82;;;;;;;;;;5002871;28;20022;-56
2023/07/21 00:31:29;;;;;;;88.53;11.95;;;;;;;;;;4998466;28;20440;-55
2023/07/21 00:33:54;;;;;;;100.53;7.45;;;;;;;;;;5002483;28;20109;-56
2023/07/21 00:36:20;;;;;;;112.47;9.70;;;;;;;;;;5001159;28;20030;-56
2023/07/21 00:38:46;;;;;;;92.35;8.05;;;;;;;;;;5000069;28;20022;-56
2023/07/21 00:41:12;;;;;;;157.85;23.63;;;;;;;;;;4999067;28;20259;-57
2023/07/21 00:43:37;;;;;;;106.18;21.58;;;;;;;;;;5001337;28;20033;-58
2023/07/21 00:46:02;;;;;;;101.50;8.53;;;;;;;;;;5000633;28;20446;-56
2023/07/21 00:48:27;;;;;;;80.85;6.95;;;;;;;;;;5002123;28;20600;-56
2023/07/21 00:50:53;;;;;;;91.05;7.68;;;;;;;;;;5002272;28;20033;-56
2023/07/21 00:53:19;;;;;;;166.02;11.50;;;;;;;;;;5001388;28;20041;-58
2023/07/21 00:55:47;;;;;;;109.70;27.33;;;;;;;;;;5003279;28;20034;-55
2023/07/21 00:58:13;;;;;;;134.60;10.90;;;;;;;;;;5003649;28;20036;-57
2023/07/21 01:00:39;;;;;;;99.68;7.85;;;;;;;;;;5004245;28;20026;-56
2023/07/21 01:03:05;;;;;;;83.35;16.27;;;;;;;;;;5005010;28;20018;-57
2023/07/21 01:05:32;;;;;;;93.80;7.25;;;;;;;;;;5003323;28;20040;-58
2023/07/21 01:07:57;;;;;;;104.40;7.97;;;;;;;;;;5006950;28;20013;-57
2023/07/21 01:10:23;;;;;;;157.55;34.65;;;;;;;;;;5003294;28;20039;-55
2023/07/21 01:12:48;;;;;;;85.10;6.75;;;;;;;;;;5005075;28;20068;-56
2023/07/21 01:15:13;;;;;;;133.65;10.45;;;;;;;;;;5003902;28;20075;-55
2023/07/21 01:17:39;;;;;;;75.00;6.45;;;;;;;;;;5007048;28;20442;-55
2023/07/21 01:20:05;;;;;;;85.28;6.97;;;;;;;;;;4991588;28;20239;-57
2023/07/21 01:22:42;;;;;;;104.25;8.30;;;;;;;;;;5003613;28;20469;-56
2023/07/21 01:25:09;;;;;;;70.15;6.05;;;;;;;;;;5004418;28;20605;-57
2023/07/21 01:27:39;;;;;;;87.13;7.10;;;;;;;;;;5036586;28;20046;-58
2023/07/21 01:30:06;;;;;;;123.00;64.00;;;;;;;;;;5005142;28;20021;-56
2023/07/21 01:32:36;;;;;;;85.68;7.50;;;;;;;;;;5003309;28;20013;-55
2023/07/21 01:35:01;;;;;;;406.13;340.15;;;;;;;;;;5005078;28;20475;-57
2023/07/21 01:37:26;;;;;;;196.23;77.47;;;;;;;;;;5001264;28;20083;-56
2023/07/21 01:39:53;;;;;;;135.00;73.00;;;;;;;;;;5003365;28;20025;-57
2023/07/21 01:42:19;;;;;;;196.95;76.28;;;;;;;;;;5002780;28;20378;-57
2023/07/21 01:44:44;;;;;;;153.32;84.95;;;;;;;;;;5005474;28;20030;-57
2023/07/21 01:47:10;;;;;;;99.38;26.63;;;;;;;;;;5004008;28;20041;-56
2023/07/21 01:49:35;;;;;;;93.75;7.47;;;;;;;;;;5005670;28;20515;-57
2023/07/21 01:52:00;;;;;;;76.60;6.40;;;;;;;;;;5007283;28;20045;-58
2023/07/21 01:54:28;;;;;;;251.30;143.27;;;;;;;;;;5004408;28;20291;-56
2023/07/21 01:57:04;;;;;;;91.18;7.28;;;;;;;;;;5006044;28;20116;-58
2023/07/21 01:59:29;;;;;;;131.15;9.80;;;;;;;;;;5005812;28;20136;-58
2023/07/21 02:01:55;;;;;;;99.43;7.88;;;;;;;;;;5003303;28;20124;-56
2023/07/21 02:04:21;;;;;;;124.93;9.77;;;;;;;;;;5002891;28;20070;-57
2023/07/21 02:06:47;;;;;;;75.63;6.85;;;;;;;;;;5003870;28;20036;-56
2023/07/21 02:09:12;;;;;;;89.85;7.75;;;;;;;;;;5003922;28;20479;-56
2023/07/21 02:11:38;;;;;;;80.55;6.90;;;;;;;;;;5004238;28;20461;-54
2023/07/21 02:14:03;;;;;;;84.72;7.10;;;;;;;;;;5006043;28;20022;-54
2023/07/21 02:16:28;;;;;;;162.25;11.85;;;;;;;;;;5001437;28;20542;-55
2023/07/21 02:18:54;;;;;;;80.77;6.83;;;;;;;;;;5005854;28;20068;-56
2023/07/21 02:21:19;;;;;;;125.47;10.57;;;;;;;;;;5002565;28;20304;-57
2023/07/21 02:23:44;;;;;;;103.50;8.03;;;;;;;;;;5001732;28;20399;-57
2023/07/21 02:26:09;;;;;;;78.05;8.52;;;;;;;;;;5004163;28;20269;-57
2023/07/21 02:28:35;;;;;;;82.87;6.87;;;;;;;;;;5000885;28;20053;-57
2023/07/21 02:31:04;;;;;;;102.33;8.17;;;;;;;;;;5004058;28;20294;-57
2023/07/21 02:33:33;;;;;;;140.60;10.52;;;;;;;;;;5001992;28;20281;-57
2023/07/21 02:35:59;;;;;;;77.13;6.88;;;;;;;;;;5002264;28;20545;-58
2023/07/21 02:38:25;;;;;;;148.13;13.20;;;;;;;;;;5003437;28;20025;-56
2023/07/21 02:40:51;;;;;;;104.32;7.80;;;;;;;;;;5003338;28;20029;-56
2023/07/21 02:43:17;;;;;;;106.65;9.05;;;;;;;;;;5003237;28;20880;-57
2023/07/21 02:45:52;;;;;;;103.68;12.82;;;;;;;;;;5002868;28;20037;-58
2023/07/21 02:48:18;;;;;;;116.55;10.05;;;;;;;;;;5002424;28;20060;-57
2023/07/21 02:50:47;;;;;;;109.13;11.05;;;;;;;;;;5002863;28;20388;-56
2023/07/21 02:53:13;;;;;;;62.03;5.78;;;;;;;;;;5002952;28;20112;-56
2023/07/21 02:55:38;;;;;;;72.28;6.40;;;;;;;;;;5001608;28;20037;-55
2023/07/21 02:58:03;;;;;;;93.75;7.65;;;;;;;;;;5004182;28;20038;-57
2023/07/21 03:00:29;;;;;;;120.72;14.27;;;;;;;;;;5002694;28;20029;-58
2023/07/21 03:02:54;;;;;;;88.53;7.63;;;;;;;;;;5004079;28;20541;-57
2023/07/21 03:05:20;;;;;;;139.23;10.55;;;;;;;;;;5001063;28;20518;-57
2023/07/21 03:07:45;;;;;;;84.55;7.03;;;;;;;;;;5003677;28;20495;-56
2023/07/21 03:10:11;;;;;;;75.50;6.30;;;;;;;;;;5004854;28;20021;-58
2023/07/21 03:12:36;;;;;;;96.22;8.02;;;;;;;;;;5003444;28;20252;-57
2023/07/21 03:15:02;;;;;;;97.28;7.40;;;;;;;;;;5002538;28;20029;-58
2023/07/21 03:17:27;;;;;;;137.52;10.60;;;;;;;;;;5001871;28;20392;-56
2023/07/21 03:19:52;;;;;;;106.13;8.05;;;;;;;;;;5004150;28;20026;-57
2023/07/21 03:22:18;;;;;;;98.10;8.27;;;;;;;;;;5002424;28;20034;-56
2023/07/21 03:24:43;;;;;;;79.27;7.10;;;;;;;;;;5003653;28;20440;-58
2023/07/21 03:27:12;;;;;;;90.55;7.47;;;;;;;;;;5002668;28;20536;-57
2023/07/21 03:29:37;;;;;;;87.05;7.22;;;;;;;;;;5002203;28;20028;-56
2023/07/21 03:32:03;;;;;;;80.43;7.30;;;;;;;;;;5002833;28;20217;-57
2023/07/21 03:34:28;;;;;;;147.63;10.82;;;;;;;;;;5001561;28;20032;-57
2023/07/21 03:36:53;;;;;;;98.47;7.80;;;;;;;;;;5001657;28;20030;-56
2023/07/21 03:39:23;;;;;;;100.30;8.33;;;;;;;;;;5002233;28;20411;-57
2023/07/21 03:41:48;;;;;;;104.82;8.13;;;;;;;;;;5001910;28;20272;-54
2023/07/21 03:44:13;;;;;;;83.82;7.18;;;;;;;;;;5002391;28;20489;-58
2023/07/21 03:46:39;;;;;;;89.50;7.47;;;;;;;;;;5000770;28;20044;-55
2023/07/21 03:49:04;;;;;;;93.63;8.33;;;;;;;;;;5003153;28;20028;-57
2023/07/21 03:51:29;;;;;;;126.27;10.30;;;;;;;;;;5002708;28;20044;-56
2023/07/21 03:53:58;;;;;;;94.07;8.38;;;;;;;;;;5002652;28;20291;-59
2023/07/21 03:56:23;;;;;;;128.77;10.65;;;;;;;;;;5000624;28;20492;-55
2023/07/21 03:58:49;;;;;;;90.35;7.60;;;;;;;;;;5003775;28;20005;-56
2023/07/21 04:01:15;;;;;;;93.60;7.68;;;;;;;;;;5002486;28;20062;-58
2023/07/21 04:03:40;;;;;;;101.35;8.18;;;;;;;;;;5001775;28;20149;-56
2023/07/21 04:06:07;;;;;;;85.80;7.63;;;;;;;;;;5001837;28;20551;-55
2023/07/21 04:08:32;;;;;;;133.93;10.40;;;;;;;;;;5002745;28;20029;-57
2023/07/21 04:10:57;;;;;;;91.03;7.72;;;;;;;;;;5001931;28;20041;-56
2023/07/21 04:13:23;;;;;;;100.33;8.07;;;;;;;;;;5001440;28;20030;-56
2023/07/21 04:15:51;;;;;;;87.20;7.27;;;;;;;;;;5001617;28;20030;-57
2023/07/21 04:18:16;;;;;;;91.78;7.53;;;;;;;;;;5002384;28;20355;-57
2023/07/21 04:20:41;;;;;;;109.07;8.80;;;;;;;;;;5001978;28;20026;-57
2023/07/21 04:23:09;;;;;;;93.50;7.50;;;;;;;;;;5004141;28;20264;-55
2023/07/21 04:25:34;;;;;;;134.30;11.23;;;;;;;;;;5001724;28;20261;-56
2023/07/21 04:27:59;;;;;;;91.10;7.93;;;;;;;;;;5007166;28;20017;-57
2023/07/21 04:30:25;;;;;;;148.10;11.02;;;;;;;;;;5006308;28;20471;-57
2023/07/21 04:32:50;;;;;;;198.98;120.40;;;;;;;;;;5006913;28;20281;-56
2023/07/21 04:35:16;;;;;;;82.47;7.33;;;;;;;;;;5004875;28;20091;-57
2023/07/21 04:37:41;;;;;;;86.90;7.47;;;;;;;;;;5005997;28;20087;-57
2023/07/21 04:40:07;;;;;;;107.40;9.70;;;;;;;;;;5006049;28;20426;-57
2023/07/21 04:42:32;;;;;;;286.55;172.13;;;;;;;;;;5004817;28;20427;-57
2023/07/21 04:44:58;;;;;;;108.45;9.13;;;;;;;;;;5005991;28;20053;-58
2023/07/21 04:47:23;;;;;;;103.57;15.95;;;;;;;;;;5004385;28;20038;-56
2023/07/21 04:49:50;;;;;;;75.63;6.60;;;;;;;;;;5005093;28;20436;-55
2023/07/21 04:52:16;;;;;;;223.02;154.77;;;;;;;;;;5004713;28;20050;-57
2023/07/21 04:54:41;;;;;;;83.00;17.20;;;;;;;;;;5005001;28;20429;-56
2023/07/21 04:57:06;;;;;;;99.60;8.65;;;;;;;;;;5004929;28;20042;-57
2023/07/21 04:59:32;;;;;;;149.40;30.13;;;;;;;;;;5005024;28;20034;-57
2023/07/21 05:01:58;;;;;;;87.68;7.35;;;;;;;;;;5005217;28;20365;-55
2023/07/21 05:04:23;;;;;;;283.00;236.15;;;;;;;;;;5006403;28;20038;-57
2023/07/21 05:06:48;;;;;;;292.50;239.47;;;;;;;;;;5006159;28;20111;-57
2023/07/21 05:09:14;;;;;;;80.72;10.55;;;;;;;;;;5006569;28;20340;-57
2023/07/21 05:11:39;;;;;;;133.23;14.05;;;;;;;;;;5004301;28;20502;-57
2023/07/21 05:14:05;;;;;;;128.93;40.35;;;;;;;;;;5005533;28;20301;-57
2023/07/21 05:16:31;;;;;;;167.50;65.60;;;;;;;;;;5005056;28;20228;-56
2023/07/21 05:18:57;;;;;;;98.90;15.30;;;;;;;;;;5006139;28;20418;-57
2023/07/21 05:21:22;;;;;;;98.32;22.48;;;;;;;;;;5005942;28;20511;-54
2023/07/21 05:23:47;;;;;;;262.90;142.53;;;;;;;;;;5003929;28;20415;-56
2023/07/21 05:26:12;;;;;;;99.73;42.93;;;;;;;;;;5003899;28;20415;-56
2023/07/21 05:28:38;;;;;;;237.23;74.80;;;;;;;;;;5007273;28;20365;-56
2023/07/21 05:31:03;;;;;;;252.75;215.18;;;;;;;;;;5007670;28;20299;-57
2023/07/21 05:33:28;;;;;;;182.98;68.35;;;;;;;;;;5003569;28;20024;-57
2023/07/21 05:36:03;;;;;;;341.17;294.33;;;;;;;;;;5004651;28;20420;-56
2023/07/21 05:38:29;;;;;;;119.70;9.90;;;;;;;;;;5004553;28;20022;-57
2023/07/21 05:40:57;;;;;;;181.17;118.53;;;;;;;;;;5005485;28;20036;-58
2023/07/21 05:43:23;;;;;;;235.35;173.40;;;;;;;;;;5004870;28;21301;-55
2023/07/21 05:45:48;;;;;;;216.82;188.35;;;;;;;;;;5001539;28;20380;-58
2023/07/21 05:48:13;;;;;;;270.13;241.13;;;;;;;;;;5005067;28;20131;-54
2023/07/21 05:50:38;;;;;;;415.20;304.97;;;;;;;;;;5005095;28;20276;-58
2023/07/21 05:53:04;;;;;;;137.50;58.05;;;;;;;;;;5003935;28;20264;-57
2023/07/21 05:55:29;;;;;;;285.45;232.25;;;;;;;;;;5003042;28;20034;-57
2023/07/21 05:57:54;;;;;;;233.77;194.18;;;;;;;;;;5004673;28;20037;-56
2023/07/21 06:00:20;;;;;;;372.60;337.47;;;;;;;;;;5004283;28;20050;-58
2023/07/21 06:02:45;;;;;;;316.07;283.07;;;;;;;;;;5003921;28;20253;-58
2023/07/21 06:05:10;;;;;;;273.90;242.17;;;;;;;;;;5002846;28;20273;-58
2023/07/21 06:07:36;;;;;;;316.87;250.50;;;;;;;;;;5034906;28;20269;-57
2023/07/21 06:10:03;;;;;;;247.43;176.60;;;;;;;;;;5005486;28;20991;-57
2023/07/21 06:12:28;;;;;;;340.70;278.63;;;;;;;;;;5002021;28;20042;-57
2023/07/21 06:14:53;;;;;;;263.98;210.43;;;;;;;;;;5003185;28;20037;-55
2023/07/21 06:17:19;;;;;;;341.47;307.20;;;;;;;;;;5003545;28;20104;-55
2023/07/21 06:19:47;;;;;;;271.90;243.15;;;;;;;;;;5003479;28;20464;-55
2023/07/21 06:22:13;;;;;;;322.70;289.27;;;;;;;;;;5003547;28;20034;-57
2023/07/21 06:24:38;;;;;;;362.00;294.27;;;;;;;;;;5003896;28;20080;-57
2023/07/21 06:27:03;;;;;;;356.23;318.98;;;;;;;;;;5004538;28;20510;-58
2023/07/21 06:29:29;;;;;;;272.17;229.85;;;;;;;;;;5002707;28;20584;-58
2023/07/21 06:31:54;;;;;;;259.93;200.10;;;;;;;;;;5003775;28;20122;-57
2023/07/21 06:34:22;;;;;;;367.58;329.00;;;;;;;;;;5004009;28;20308;-58
2023/07/21 06:36:47;;;;;;;214.65;175.23;;;;;;;;;;5001296;28;20187;-58
2023/07/21 06:39:12;;;;;;;236.87;192.73;;;;;;;;;;5003152;28;20529;-58
2023/07/21 06:41:37;;;;;;;329.77;254.33;;;;;;;;;;5002657;28;20099;-56
2023/07/21 06:44:03;;;;;;;311.23;278.50;;;;;;;;;;5002729;28;20525;-56
2023/07/21 06:46:28;;;;;;;237.10;212.73;;;;;;;;;;5003048;28;20782;-58
2023/07/21 06:48:53;;;;;;;333.63;275.80;;;;;;;;;;5003136;28;20022;-56
2023/07/21 06:51:19;;;;;;;359.05;321.65;;;;;;;;;;5004325;28;20076;-58
2023/07/21 06:53:45;;;;;;;299.25;229.80;;;;;;;;;;5002442;28;20338;-58
2023/07/21 06:56:12;;;;;;;329.63;277.33;;;;;;;;;;5003630;28;20029;-58
2023/07/21 06:58:37;;;;;;;401.20;360.75;;;;;;;;;;5003429;28;20022;-58
2023/07/21 07:01:02;;;;;;;357.53;319.00;;;;;;;;;;5000912;28;20033;-58
2023/07/21 07:03:29;;;;;;;398.90;360.10;;;;;;;;;;5005586;28;20486;-56
2023/07/21 07:05:55;;;;;;;465.58;422.17;;;;;;;;;;5007349;28;20379;-56
2023/07/21 07:08:21;;;;;;;433.38;393.13;;;;;;;;;;5006438;28;20095;-58
2023/07/21 07:10:47;;;;;;;437.02;395.33;;;;;;;;;;5005532;28;20415;-58
2023/07/21 07:13:13;;;;;;;413.80;373.83;;;;;;;;;;5004720;28;20056;-57
2023/07/21 07:15:38;;;;;;;442.97;400.13;;;;;;;;;;5005103;28;20029;-56
2023/07/21 07:18:04;;;;;;;430.40;391.60;;;;;;;;;;5009700;28;20248;-57
2023/07/21 07:20:29;;;;;;;337.55;306.70;;;;;;;;;;5005667;28;20033;-55
2023/07/21 07:22:54;;;;;;;469.10;422.30;;;;;;;;;;5005285;28;20697;-58
2023/07/21 07:25:23;;;;;;;534.88;487.05;;;;;;;;;;5005906;28;20026;-56
2023/07/21 07:27:49;;;;;;;409.30;312.38;;;;;;;;;;5005269;28;20092;-58
2023/07/21 07:30:16;;;;;;;477.43;428.00;;;;;;;;;;5006459;28;20046;-56
2023/07/21 07:32:41;;;;;;;470.90;428.98;;;;;;;;;;5003518;28;20026;-55
2023/07/21 07:35:07;;;;;;;455.45;415.30;;;;;;;;;;5005651;28;20072;-56
2023/07/21 07:37:32;;;;;;;447.30;406.05;;;;;;;;;;5005794;28;20141;-57
2023/07/21 07:39:57;;;;;;;550.77;505.13;;;;;;;;;;5007906;28;20063;-57
2023/07/21 07:42:23;;;;;;;494.07;451.87;;;;;;;;;;5005013;28;20033;-58
2023/07/21 07:44:49;;;;;;;454.85;308.08;;;;;;;;;;5005745;28;20025;-57
2023/07/21 07:47:14;;;;;;;592.47;535.75;;;;;;;;;;5004908;28;20030;-57
2023/07/21 07:49:39;;;;;;;511.77;465.73;;;;;;;;;;5005730;28;20109;-58
2023/07/21 07:52:06;;;;;;;367.10;334.30;;;;;;;;;;5006775;28;20048;-57
2023/07/21 07:54:34;;;;;;;375.35;341.50;;;;;;;;;;5004316;28;20376;-58
2023/07/21 07:56:59;;;;;;;391.60;358.35;;;;;;;;;;5006603;28;20058;-57
2023/07/21 07:59:24;;;;;;;379.87;344.60;;;;;;;;;;5006185;28;20026;-58
2023/07/21 08:01:50;;;;;;;413.33;377.37;;;;;;;;;;5005926;28;20075;-57
2023/07/21 08:04:15;;;;;;;333.53;304.57;;;;;;;;;;5005714;28;20246;-58
2023/07/21 08:06:40;;;;;;;305.10;273.73;;;;;;;;;;5003130;28;20268;-58
2023/07/21 08:09:06;;;;;;;343.45;312.73;;;;;;;;;;5007549;28;20156;-58
2023/07/21 08:11:31;;;;;;;325.60;296.60;;;;;;;;;;5007292;28;20033;-58
2023/07/21 08:13:56;;;;;;;354.53;320.03;;;;;;;;;;5004497;28;20450;-57
2023/07/21 08:16:21;;;;;;;438.87;396.30;;;;;;;;;;5005248;28;21167;-58
2023/07/21 08:18:47;;;;;;;433.57;390.40;;;;;;;;;;5004587;28;20064;-59
2023/07/21 08:21:22;;;;;;;479.83;434.53;;;;;;;;;;5006707;28;20367;-59
2023/07/21 08:23:49;;;;;;;478.90;432.63;;;;;;;;;;5004581;28;20068;-58
2023/07/21 08:26:14;;;;;;;393.35;358.17;;;;;;;;;;5004894;28;20042;-59
2023/07/21 08:28:39;;;;;;;387.63;348.30;;;;;;;;;;5006445;28;20044;-58
2023/07/21 08:31:05;;;;;;;474.13;429.83;;;;;;;;;;5005030;28;20268;-58
2023/07/21 08:33:30;;;;;;;388.27;353.03;;;;;;;;;;5007051;28;20792;-58
2023/07/21 08:35:55;;;;;;;497.73;431.73;;;;;;;;;;5004949;28;20121;-57
2023/07/21 08:38:21;;;;;;;551.20;499.90;;;;;;;;;;5005914;28;20026;-58
2023/07/21 08:40:49;;;;;;;590.03;510.70;;;;;;;;;;5004324;28;20036;-59
2023/07/21 08:43:16;;;;;;;399.05;362.58;;;;;;;;;;5005814;28;20052;-58
2023/07/21 08:45:42;;;;;;;384.40;344.83;;;;;;;;;;5005423;28;20091;-59
2023/07/21 08:48:08;;;;;;;381.30;344.58;;;;;;;;;;5005316;28;20020;-59
2023/07/21 08:50:35;;;;;;;365.10;330.87;;;;;;;;;;5006117;28;20022;-57
2023/07/21 08:53:00;;;;;;;398.70;360.45;;;;;;;;;;5005641;28;20264;-56
2023/07/21 08:55:26;;;;;;;412.10;372.03;;;;;;;;;;5004882;28;20029;-58
2023/07/21 08:57:55;;;;;;;325.53;292.70;;;;;;;;;;5005268;28;20013;-56
2023/07/21 09:00:23;;;;;;;350.67;318.20;;;;;;;;;;5004842;28;20033;-58
2023/07/21 09:02:48;;;;;;;463.80;416.45;;;;;;;;;;5004678;28;20092;-56
2023/07/21 09:05:17;;;;;;;462.00;418.90;;;;;;;;;;5004123;28;20022;-58
2023/07/21 09:07:44;;;;;;;470.58;424.42;;;;;;;;;;5001824;28;20776;-58
2023/07/21 09:10:10;;;;;;;376.58;341.13;;;;;;;;;;5005674;28;20647;-58
2023/07/21 09:12:36;;;;;;;516.15;471.15;;;;;;;;;;5006116;28;20068;-56
2023/07/21 09:15:10;;;;;;;364.98;327.38;;;;;;;;;;5010171;28;20082;-57
2023/07/21 09:17:42;;;;;;;379.52;343.45;;;;;;;;;;5008764;28;20220;-56
2023/07/21 09:20:08;;;;;;;342.85;310.38;;;;;;;;;;5007878;28;20076;-57
2023/07/21 09:22:33;;;;;;;351.25;318.55;;;;;;;;;;5008014;28;20030;-57
2023/07/21 09:24:58;;;;;;;440.90;398.75;;;;;;;;;;5007534;28;20108;-55
2023/07/21 09:27:24;;;;;;;460.67;416.80;;;;;;;;;;5007615;28;20029;-58
2023/07/21 09:29:57;;;;;;;391.17;351.73;;;;;;;;;;5001845;28;20476;-56
2023/07/21 09:32:23;;;;;;;359.58;321.65;;;;;;;;;;5006541;28;20331;-58
2023/07/21 09:34:55;;;;;;;499.93;348.87;;;;;;;;;;5005320;28;20025;-55
2023/07/21 09:37:21;;;;;;;509.88;441.08;;;;;;;;;;5006655;28;20534;-56
2023/07/21 09:39:50;;;;;;;415.17;377.33;;;;;;;;;;5007360;28;20033;-57
2023/07/21 09:42:15;;;;;;;302.42;273.73;;;;;;;;;;5008753;28;20040;-60
2023/07/21 09:44:41;;;;;;;405.55;363.90;;;;;;;;;;5007898;28;20393;-57
2023/07/21 09:47:06;;;;;;;338.80;305.63;;;;;;;;;;5005606;28;20060;-57
2023/07/21 09:49:31;;;;;;;422.67;383.13;;;;;;;;;;5007057;28;20025;-56
2023/07/21 09:51:57;;;;;;;342.50;308.95;;;;;;;;;;5004414;28;20652;-59
2023/07/21 09:54:25;;;;;;;492.85;451.17;;;;;;;;;;5005478;28;20033;-60
2023/07/21 09:56:51;;;;;;;469.38;421.45;;;;;;;;;;5003974;28;20037;-59
2023/07/21 09:59:18;;;;;;;367.52;330.58;;;;;;;;;;5006013;28;20411;-58
2023/07/21 10:01:43;;;;;;;552.00;502.92;;;;;;;;;;5003555;28;20056;-60
2023/07/21 10:04:09;;;;;;;454.48;414.55;;;;;;;;;;5005534;28;20415;-58
2023/07/21 10:06:35;;;;;;;533.42;396.08;;;;;;;;;;5006162;28;20401;-58
2023/07/21 10:09:00;;;;;;;391.27;353.10;;;;;;;;;;5003371;28;20040;-58
2023/07/21 10:11:27;;;;;;;424.27;379.35;;;;;;;;;;5004946;28;20325;-57
2023/07/21 10:13:52;;;;;;;605.97;541.63;;;;;;;;;;5005026;28;20377;-58
2023/07/21 10:16:20;;;;;;;419.40;382.93;;;;;;;;;;5005054;28;20498;-55
2023/07/21 10:18:58;;;;;;;536.22;481.40;;;;;;;;;;5004713;28;20025;-54
2023/07/21 10:21:28;;;;;;;525.95;480.08;;;;;;;;;;5006096;28;20735;-56
2023/07/21 10:23:54;;;;;;;528.47;420.00;;;;;;;;;;5005199;28;20034;-56
2023/07/21 10:26:19;;;;;;;381.70;344.30;;;;;;;;;;5006741;28;20339;-56
2023/07/21 10:28:46;;;;;;;600.20;465.37;;;;;;;;;;5003064;28;20030;-57
2023/07/21 10:31:20;;;;;;;419.55;379.42;;;;;;;;;;5003610;28;20322;-56
2023/07/21 10:34:02;;;;;;;583.60;522.28;;;;;;;;;;5005414;28;20422;-55
2023/07/21 10:36:38;;;;;;;435.27;393.05;;;;;;;;;;5004167;28;20048;-57
2023/07/21 10:39:07;;;;;;;540.67;480.58;;;;;;;;;;5004733;28;20018;-55
2023/07/21 10:41:32;;;;;;;403.23;364.42;;;;;;;;;;5005586;28;20045;-55
2023/07/21 10:43:58;;;;;;;404.77;335.52;;;;;;;;;;5003248;28;20021;-57
2023/07/21 10:46:23;;;;;;;975.43;189.47;;;;;;;;;;5005421;28;20128;-57
2023/07/21 10:48:48;;;;;;;407.57;366.47;;;;;;;;;;5004586;28;20626;-56
2023/07/21 10:51:13;;;;;;;557.07;504.37;;;;;;;;;;5002509;28;20465;-57
2023/07/21 10:53:39;;;;;;;570.30;514.30;;;;;;;;;;5004252;28;20017;-58
2023/07/21 10:56:07;;;;;;;335.10;301.83;;;;;;;;;;5003482;28;20036;-58
2023/07/21 10:58:33;;;;;;;315.63;282.73;;;;;;;;;;5004597;28;20104;-56
2023/07/21 11:00:58;;;;;;;531.15;475.73;;;;;;;;;;5002948;28;20164;-57
2023/07/21 11:03:24;;;;;;;496.05;447.85;;;;;;;;;;5006125;28;20399;-56
2023/07/21 11:05:49;;;;;;;692.90;622.30;;;;;;;;;;5002140;28;20250;-57
2023/07/21 11:08:27;;;;;;;417.10;378.67;;;;;;;;;;5005030;28;20025;-56
2023/07/21 11:10:52;;;;;;;395.92;344.92;;;;;;;;;;5001551;28;20025;-57
2023/07/21 11:13:18;;;;;;;486.13;329.42;;;;;;;;;;5004716;28;20514;-58
2023/07/21 11:15:50;;;;;;;522.88;346.42;;;;;;;;;;5001720;28;20565;-58
2023/07/21 11:18:15;;;;;;;401.17;364.98;;;;;;;;;;5005977;28;20108;-57
2023/07/21 11:20:40;;;;;;;398.00;359.80;;;;;;;;;;5006267;28;20415;-55
2023/07/21 11:23:06;;;;;;;293.83;265.27;;;;;;;;;;5001743;28;20028;-58
2023/07/21 11:25:31;;;;;;;431.70;390.90;;;;;;;;;;5003891;28;20034;-57
2023/07/21 11:28:00;;;;;;;476.67;428.10;;;;;;;;;;5002903;28;20828;-58
2023/07/21 11:30:26;;;;;;;314.50;285.42;;;;;;;;;;5003869;28;20064;-55
2023/07/21 11:33:06;;;;;;;402.97;359.47;;;;;;;;;;5002238;28;20017;-58
2023/07/21 11:35:32;;;;;;;260.57;232.73;;;;;;;;;;5003001;28;20291;-58
2023/07/21 11:37:58;;;;;;;340.88;263.20;;;;;;;;;;5004958;28;20025;-57
2023/07/21 11:40:25;;;;;;;299.25;262.92;;;;;;;;;;5003552;28;20487;-55
2023/07/21 11:42:52;;;;;;;498.52;442.17;;;;;;;;;;5004149;28;20017;-55
2023/07/21 11:45:38;;;;;;;455.67;392.50;;;;;;;;;;5003616;28;20022;-57
2023/07/21 11:48:12;;;;;;;333.88;301.80;;;;;;;;;;5002677;28;20024;-55
2023/07/21 11:50:38;;;;;;;438.75;393.98;;;;;;;;;;5001312;28;20163;-56
2023/07/21 11:53:04;;;;;;;453.25;378.65;;;;;;;;;;5002459;28;20042;-57
2023/07/21 11:55:30;;;;;;;511.73;460.25;;;;;;;;;;5002619;28;20037;-56
2023/07/21 11:57:56;;;;;;;470.65;392.35;;;;;;;;;;5003304;28;20107;-56
2023/07/21 12:00:24;;;;;;;504.67;453.15;;;;;;;;;;5003267;28;20041;-55
2023/07/21 12:02:50;;;;;;;481.80;433.10;;;;;;;;;;5001506;28;20041;-58
2023/07/21 12:05:15;;;;;;;652.97;584.28;;;;;;;;;;5002835;28;20021;-57
2023/07/21 12:07:42;;;;;;;235.63;211.60;;;;;;;;;;5006527;28;20431;-58
2023/07/21 12:10:08;;;;;;;397.08;359.25;;;;;;;;;;5002897;28;20096;-58
2023/07/21 12:12:33;;;;;;;477.20;431.95;;;;;;;;;;5005173;28;20141;-57
2023/07/21 12:14:58;;;;;;;421.67;323.23;;;;;;;;;;5002672;28;20056;-55
2023/07/21 12:17:24;;;;;;;282.33;241.10;;;;;;;;;;5001986;28;20389;-55
2023/07/21 12:19:49;;;;;;;491.87;330.60;;;;;;;;;;5003074;28;20010;-57
2023/07/21 12:22:14;;;;;;;392.77;354.03;;;;;;;;;;5002675;28;20095;-58
2023/07/21 12:24:39;;;;;;;314.02;230.15;;;;;;;;;;5004714;28;20112;-58
2023/07/21 12:27:05;;;;;;;479.50;386.57;;;;;;;;;;5003776;28;20529;-55
2023/07/21 12:29:30;;;;;;;516.67;463.00;;;;;;;;;;5004051;28;20452;-57
2023/07/21 12:31:56;;;;;;;409.17;333.55;;;;;;;;;;5002507;28;20425;-57
2023/07/21 12:34:22;;;;;;;555.35;496.23;;;;;;;;;;5001985;28;20491;-58
2023/07/21 12:36:47;;;;;;;400.80;359.10;;;;;;;;;;5003907;28;20034;-55
2023/07/21 12:39:12;;;;;;;550.67;461.92;;;;;;;;;;5005688;28;20483;-56
2023/07/21 12:41:38;;;;;;;365.70;324.73;;;;;;;;;;5004964;28;20063;-56
2023/07/21 12:44:03;;;;;;;374.95;338.35;;;;;;;;;;5007867;28;20025;-56
2023/07/21 12:46:28;;;;;;;551.97;277.27;;;;;;;;;;5006151;28;20064;-58
2023/07/21 12:48:54;;;;;;;669.35;381.45;;;;;;;;;;5010591;28;20080;-58
2023/07/21 12:51:19;;;;;;;370.50;261.17;;;;;;;;;;5010978;28;20053;-58
2023/07/21 12:54:10;;;;;;;406.23;367.33;;;;;;;;;;5007853;28;20361;-59
2023/07/21 12:56:35;;;;;;;489.33;441.80;;;;;;;;;;5005329;28;20917;-58
2023/07/21 12:59:00;;;;;;;290.90;241.83;;;;;;;;;;5007088;28;20382;-59
2023/07/21 13:01:26;;;;;;;493.57;418.80;;;;;;;;;;5006880;28;20280;-57
2023/07/21 13:03:51;;;;;;;396.43;269.37;;;;;;;;;;5007132;28;20327;-57
2023/07/21 13:06:16;;;;;;;502.67;457.20;;;;;;;;;;5006556;28;20033;-59
2023/07/21 13:08:42;;;;;;;460.15;415.63;;;;;;;;;;5007622;28;20334;-56
2023/07/21 13:11:07;;;;;;;863.30;397.23;;;;;;;;;;5003476;28;20037;-56
2023/07/21 13:13:32;;;;;;;605.33;543.33;;;;;;;;;;5005497;28;20287;-56
2023/07/21 13:15:57;;;;;;;434.60;305.67;;;;;;;;;;5005439;28;20131;-55
2023/07/21 13:18:23;;;;;;;282.33;254.55;;;;;;;;;;5008745;28;20041;-56
2023/07/21 13:20:48;;;;;;;243.10;216.70;;;;;;;;;;5008193;28;20058;-56
2023/07/21 13:23:13;;;;;;;297.00;252.17;;;;;;;;;;5006340;28;20026;-57
2023/07/21 13:25:38;;;;;;;400.60;361.70;;;;;;;;;;5007766;28;20072;-59
2023/07/21 13:28:04;;;;;;;269.43;227.37;;;;;;;;;;5005245;28;20256;-56
2023/07/21 13:30:29;;;;;;;416.60;375.70;;;;;;;;;;5005803;28;20265;-57
2023/07/21 13:32:54;;;;;;;470.67;286.77;;;;;;;;;;5006420;28;20030;-56
2023/07/21 13:35:19;;;;;;;507.60;455.33;;;;;;;;;;5005823;28;20559;-55
2023/07/21 13:37:45;;;;;;;421.03;355.30;;;;;;;;;;5007878;28;20024;-54
2023/07/21 13:40:10;;;;;;;498.67;450.92;;;;;;;;;;5006639;28;21789;-53
2023/07/21 13:42:35;;;;;;;475.20;429.42;;;;;;;;;;5006768;28;20151;-56
2023/07/21 13:45:01;;;;;;;372.37;279.00;;;;;;;;;;5006884;28;20018;-58
2023/07/21 13:47:26;;;;;;;427.73;382.50;;;;;;;;;;5007478;28;20280;-57
2023/07/21 13:49:54;;;;;;;336.45;302.42;;;;;;;;;;5004177;28;20017;-55
2023/07/21 13:52:20;;;;;;;376.63;338.33;;;;;;;;;;5006865;28;20045;-54
2023/07/21 13:54:45;;;;;;;236.40;126.22;;;;;;;;;;5004696;28;20434;-56
2023/07/21 13:57:11;;;;;;;278.30;249.15;;;;;;;;;;5003300;28;20077;-57